createdAt,value
2023-03-13T00:00:06.434Z,6.87
2023-03-13T00:05:09.132Z,7.01
2023-03-13T00:10:15.424Z,7.01
2023-03-13T00:15:20.375Z,7.02
2023-03-13T00:20:22.542Z,7.00
2023-03-13T00:25:24.333Z,7.05
2023-03-13T00:30:26.230Z,7.10
2023-03-13T00:35:29.190Z,7.13
2023-03-13T00:40:34.604Z,7.16
2023-03-13T00:45:37.013Z,7.12
2023-03-13T00:50:42.181Z,7.06
2023-03-13T00:56:01.547Z,7.09
2023-03-13T01:01:12.236Z,7.09
2023-03-13T01:06:17.505Z,7.12
2023-03-13T01:11:22.082Z,7.09
2023-03-13T01:16:25.001Z,7.10
2023-03-13T01:21:29.446Z,7.15
2023-03-13T01:26:31.295Z,7.10
2023-03-13T01:31:35.115Z,7.13
2023-03-13T01:36:38.179Z,7.17
2023-03-13T01:41:40.173Z,7.19
2023-03-13T01:46:42.225Z,7.30
2023-03-13T01:51:53.858Z,7.32
2023-03-13T01:57:13.136Z,7.28
2023-03-13T02:02:21.222Z,7.28
2023-03-13T02:07:49.458Z,7.30
2023-03-13T02:12:52.201Z,7.34
2023-03-13T02:17:55.058Z,7.39
2023-03-13T02:23:46.934Z,7.41
2023-03-13T02:28:48.703Z,7.39
2023-03-13T02:33:51.921Z,7.42
2023-03-13T02:39:02.703Z,7.43
2023-03-13T02:44:07.699Z,7.45
2023-03-13T02:49:28.943Z,7.47
2023-03-13T02:54:35.951Z,7.48
2023-03-13T02:59:37.934Z,7.54
2023-03-13T03:04:39.799Z,7.65
2023-03-13T03:09:41.574Z,7.65
2023-03-13T03:14:47.133Z,7.65
2023-03-13T03:19:49.437Z,7.65
2023-03-13T03:24:51.467Z,7.69
2023-03-13T03:29:53.297Z,7.69
2023-03-13T03:34:56.136Z,7.73
2023-03-13T03:39:58.722Z,7.79
2023-03-13T03:45:02.265Z,7.86
2023-03-13T03:50:04.899Z,7.88
2023-03-13T03:55:10.567Z,7.95
2023-03-13T04:00:15.916Z,7.91
2023-03-13T04:05:20.898Z,8.01
2023-03-13T04:10:23.357Z,8.03
2023-03-13T04:15:26.603Z,8.03
2023-03-13T04:20:29.047Z,8.03
2023-03-13T04:25:31.141Z,8.01
2023-03-13T04:30:35.055Z,7.97
2023-03-13T04:35:54.674Z,8.06
2023-03-13T04:41:17.918Z,8.05
2023-03-13T04:46:28.340Z,8.08
2023-03-13T04:51:50.534Z,8.07
2023-03-13T04:57:15.001Z,8.00
2023-03-13T05:06:31.810Z,7.89
2023-03-13T05:11:51.084Z,7.85
2023-03-13T05:17:04.388Z,7.83
2023-03-13T05:22:29.555Z,7.76
2023-03-13T05:27:48.706Z,7.77
2023-03-13T05:33:10.756Z,7.69
2023-03-13T05:38:38.922Z,7.74
2023-03-13T05:43:44.260Z,7.75
2023-03-13T05:49:03.546Z,7.77
2023-03-13T05:54:21.627Z,7.92
2023-03-13T05:59:51.291Z,8.02
2023-03-13T06:05:16.526Z,8.16
2023-03-13T06:10:19.636Z,8.20
2023-03-13T06:15:22.457Z,8.36
2023-03-13T06:20:48.022Z,8.47
2023-03-13T06:25:49.788Z,8.69
2023-03-13T06:30:51.758Z,9.01
2023-03-13T06:35:56.902Z,9.42
2023-03-13T06:40:59.272Z,9.76
2023-03-13T06:46:05.353Z,10.00
2023-03-13T06:51:11.978Z,10.10
2023-03-13T06:56:14.515Z,10.34
2023-03-13T07:01:18.063Z,10.85
2023-03-13T07:06:19.995Z,11.18
2023-03-13T07:11:21.753Z,11.27
2023-03-13T07:16:25.136Z,11.41
2023-03-13T07:21:27.106Z,11.20
2023-03-13T07:26:28.891Z,11.32
2023-03-13T07:31:33.918Z,11.50
2023-03-13T07:36:36.288Z,11.82
2023-03-13T07:41:40.062Z,12.14
2023-03-13T07:46:42.043Z,12.28
2023-03-13T07:51:45.884Z,12.45
2023-03-13T07:56:47.663Z,12.63
2023-03-13T08:01:49.502Z,12.86
2023-03-13T08:06:52.510Z,13.11
2023-03-13T08:11:56.314Z,13.23
2023-03-13T08:16:58.229Z,13.40
2023-03-13T08:22:00.045Z,13.43
2023-03-13T08:27:01.808Z,13.04
2023-03-13T08:32:03.688Z,12.84
2023-03-13T08:37:05.482Z,12.88
2023-03-13T08:42:11.277Z,13.03
2023-03-13T08:47:13.034Z,13.21
2023-03-13T08:52:18.554Z,13.20
2023-03-13T08:57:20.463Z,13.19
2023-03-13T09:02:22.282Z,13.18
2023-03-13T09:07:24.421Z,13.22
2023-03-13T09:12:31.160Z,13.33
2023-03-13T09:17:33.280Z,13.42
2023-03-13T09:22:35.132Z,13.54
2023-03-13T09:27:38.137Z,13.76
2023-03-13T09:32:39.902Z,14.01
2023-03-13T09:37:41.633Z,14.30
2023-03-13T09:42:51.435Z,14.65
2023-03-13T09:48:04.274Z,15.02
2023-03-13T09:53:15.032Z,15.18
2023-03-13T09:58:30.677Z,15.14
2023-03-13T10:03:51.533Z,14.87
2023-03-13T10:08:53.546Z,14.73
2023-03-13T10:14:18.887Z,14.80
2023-03-13T10:19:31.015Z,14.96
2023-03-13T10:24:47.444Z,15.19
2023-03-13T10:29:49.178Z,15.16
2023-03-13T10:35:01.411Z,15.31
2023-03-13T10:40:12.760Z,15.37
2023-03-13T10:45:19.970Z,15.32
2023-03-13T10:50:25.129Z,15.12
2023-03-13T10:55:27.095Z,15.00
2023-03-13T11:00:38.774Z,15.01
2023-03-13T11:05:45.389Z,15.11
2023-03-13T11:10:59.446Z,15.08
2023-03-13T11:16:28.238Z,14.89
2023-03-13T11:21:56.120Z,14.86
2023-03-13T11:27:15.238Z,14.96
2023-03-13T11:32:26.797Z,15.17
2023-03-13T11:37:33.124Z,15.26
2023-03-13T11:42:58.272Z,15.21
2023-03-13T11:48:15.196Z,15.20
2023-03-13T11:53:51.570Z,15.15
2023-03-13T11:59:04.437Z,14.97
2023-03-13T12:04:20.128Z,14.78
2023-03-13T12:09:42.221Z,14.61
2023-03-13T12:15:22.773Z,14.38
2023-03-13T12:20:27.553Z,14.13
2023-03-13T12:25:43.668Z,13.94
2023-03-13T12:30:52.476Z,13.70
2023-03-13T12:36:14.747Z,13.42
2023-03-13T12:41:27.638Z,13.08
2023-03-13T12:46:46.745Z,12.79
2023-03-13T12:51:54.937Z,12.56
2023-03-13T12:57:10.822Z,12.41
2023-03-13T13:02:20.570Z,12.47
2023-03-13T13:07:28.093Z,12.82
2023-03-13T13:13:15.274Z,13.02
2023-03-13T13:18:31.938Z,13.11
2023-03-13T13:23:39.474Z,13.08
2023-03-13T13:28:43.856Z,12.59
2023-03-13T13:33:52.732Z,12.25
2023-03-13T13:38:56.857Z,12.08
2023-03-13T13:44:25.555Z,12.01
2023-03-13T13:49:37.462Z,11.96
2023-03-13T13:54:48.046Z,11.88
2023-03-13T14:00:19.622Z,11.81
2023-03-13T14:05:23.066Z,11.95
2023-03-13T14:10:40.517Z,12.15
2023-03-13T14:15:49.947Z,12.28
2023-03-13T14:21:06.008Z,12.30
2023-03-13T14:26:17.829Z,12.41
2023-03-13T14:31:24.014Z,12.37
2023-03-13T14:36:27.256Z,12.39
2023-03-13T14:41:41.647Z,12.52
2023-03-13T14:46:45.064Z,12.55
2023-03-13T14:51:58.048Z,12.69
2023-03-13T14:57:15.166Z,12.77
2023-03-13T15:02:24.375Z,12.82
2023-03-13T15:07:37.507Z,12.90
2023-03-13T15:12:46.549Z,12.95
2023-03-13T15:17:48.396Z,12.98
2023-03-13T15:22:50.172Z,12.98
2023-03-13T15:27:51.964Z,13.04
2023-03-13T15:32:53.818Z,13.00
2023-03-13T15:37:57.991Z,12.98
2023-03-13T15:42:59.985Z,12.94
2023-03-13T15:48:03.248Z,12.90
2023-03-13T15:53:33.846Z,12.90
2023-03-13T15:58:37.984Z,12.92
2023-03-13T16:03:40.673Z,12.90
2023-03-13T16:08:43.916Z,12.88
2023-03-13T16:13:46.971Z,12.98
2023-03-13T16:18:53.953Z,12.70
2023-03-13T16:23:58.845Z,12.33
2023-03-13T16:29:01.400Z,12.17
2023-03-13T16:34:03.603Z,12.07
2023-03-13T16:39:12.224Z,12.03
2023-03-13T16:44:14.035Z,12.28
2023-03-13T16:49:15.842Z,12.42
2023-03-13T16:54:20.458Z,12.57
2023-03-13T16:59:27.302Z,12.60
2023-03-13T17:04:29.395Z,12.67
2023-03-13T17:09:35.695Z,12.64
2023-03-13T17:14:37.518Z,12.66
2023-03-13T17:19:44.336Z,12.84
2023-03-13T17:24:46.196Z,13.63
2023-03-13T17:29:48.996Z,12.75
2023-03-13T17:34:53.754Z,12.23
2023-03-13T17:39:55.635Z,13.23
2023-03-13T17:44:57.397Z,13.83
2023-03-13T17:49:59.148Z,12.63
2023-03-13T17:55:00.935Z,12.01
2023-03-13T18:00:06.526Z,12.47
2023-03-13T18:05:13.963Z,12.56
2023-03-13T18:10:22.036Z,12.57
2023-03-13T18:15:25.985Z,12.50
2023-03-13T18:20:34.794Z,12.48
2023-03-13T18:25:36.495Z,12.28
2023-03-13T18:30:39.542Z,11.54
2023-03-13T18:35:41.560Z,11.14
2023-03-13T18:40:43.540Z,11.27
2023-03-13T18:45:45.332Z,11.55
2023-03-13T18:50:47.098Z,11.70
2023-03-13T18:55:48.839Z,11.75
2023-03-13T19:00:50.725Z,11.64
2023-03-13T19:05:52.746Z,11.61
2023-03-13T19:10:54.484Z,11.60
2023-03-13T19:15:56.217Z,11.59
2023-03-13T19:20:58.679Z,11.70
2023-03-13T19:26:00.494Z,11.54
2023-03-13T19:31:02.358Z,11.09
2023-03-13T19:36:06.322Z,10.88
2023-03-13T19:41:09.942Z,10.87
2023-03-13T19:46:22.750Z,10.92
2023-03-13T19:51:25.879Z,11.02
2023-03-13T19:56:29.734Z,11.11
2023-03-13T20:01:33.808Z,11.17
2023-03-13T20:06:36.873Z,11.20
2023-03-13T20:11:38.958Z,11.28
2023-03-13T20:16:40.817Z,11.32
2023-03-13T20:21:42.988Z,11.35
2023-03-13T20:26:44.736Z,11.32
2023-03-13T20:31:46.433Z,11.29
2023-03-13T20:36:48.183Z,11.21
2023-03-13T20:41:50.037Z,11.11
2023-03-13T20:46:51.838Z,10.92
2023-03-13T20:51:53.725Z,10.71
2023-03-13T20:56:55.598Z,10.51
2023-03-13T21:01:57.371Z,10.29
2023-03-13T21:07:04.544Z,10.09
2023-03-13T21:12:06.760Z,9.93
2023-03-13T21:17:10.891Z,9.98
2023-03-13T21:22:12.861Z,10.48
2023-03-13T21:27:15.457Z,10.75
2023-03-13T21:32:18.256Z,10.86
2023-03-13T21:37:20.134Z,10.47
2023-03-13T21:42:21.904Z,10.14
2023-03-13T21:47:26.334Z,9.91
2023-03-13T21:52:28.117Z,9.70
2023-03-13T21:57:29.950Z,9.69
2023-03-13T22:02:31.812Z,10.11
2023-03-13T22:07:35.253Z,10.41
2023-03-13T22:12:37.920Z,10.59
2023-03-13T22:17:41.049Z,10.75
2023-03-13T22:22:42.921Z,10.78
2023-03-13T22:27:44.745Z,10.40
2023-03-13T22:32:47.362Z,10.11
2023-03-13T22:37:52.390Z,9.92
2023-03-13T22:42:54.722Z,9.80
2023-03-13T22:47:57.863Z,10.14
2023-03-13T22:53:37.014Z,10.41
2023-03-13T22:58:40.152Z,10.47
2023-03-13T23:03:42.751Z,10.44
2023-03-13T23:08:44.877Z,10.40
2023-03-13T23:13:47.115Z,10.39
2023-03-13T23:18:49.035Z,10.41
2023-03-13T23:23:56.353Z,10.54
2023-03-13T23:28:58.168Z,10.59
2023-03-13T23:34:00.532Z,10.67
2023-03-13T23:39:02.989Z,10.84
2023-03-13T23:44:04.854Z,11.05
2023-03-13T23:49:06.706Z,11.18
2023-03-13T23:54:08.651Z,11.25
2023-03-13T23:59:10.369Z,10.97
